Time;durP1;ratioP1;P1;durP2;ratioP2;P2;SDS_P1;SDS_P2;PMS_P1;PMS_P2;Temp;Humidity;BMP_temperature;BMP_pressure;BME280_temperature;BME280_humidity;BME280_pressure;Samples;Min_cycle;Max_cycle;Signal;HPM_P1;HPM_P2
2022/09/04 00:02:05;;;;;;;30.08;20.67;;;16.10;99.90;;;;;;4953553;28;20126;-60
2022/09/04 00:04:51;;;;;;;28.65;19.70;;;16.20;99.90;;;;;;4946634;29;20023;-60
2022/09/04 00:07:27;;;;;;;34.92;19.55;;;16.10;99.90;;;;;;4951465;28;20039;-60
2022/09/04 00:09:53;;;;;;;26.52;17.33;;;16.10;99.90;;;;;;4957451;28;20039;-60
2022/09/04 00:12:26;;;;;;;28.98;19.15;;;16.10;99.90;;;;;;4951639;28;20102;-58
2022/09/04 00:15:00;;;;;;;27.77;19.05;;;16.10;99.90;;;;;;4952519;28;20385;-60
2022/09/04 00:17:45;;;;;;;28.27;20.25;;;16.20;99.90;;;;;;4953294;29;20436;-60
2022/09/04 00:20:46;;;;;;;23.98;18.65;;;16.20;99.90;;;;;;4950853;28;20031;-59
2022/09/04 00:23:14;;;;;;;26.55;18.05;;;16.30;99.90;;;;;;4950247;28;20027;-60
2022/09/04 00:26:06;;;;;;;26.55;19.10;;;16.30;99.90;;;;;;4957240;28;20483;-59
2022/09/04 00:28:46;;;;;;;31.13;20.15;;;16.40;99.90;;;;;;4948663;28;20039;-59
2022/09/04 00:31:15;;;;;;;31.33;20.58;;;16.40;99.90;;;;;;4949369;29;20435;-59
2022/09/04 00:34:07;;;;;;;35.65;20.38;;;16.40;99.90;;;;;;4952870;28;20035;-59
2022/09/04 00:36:39;;;;;;;30.13;19.60;;;16.40;99.90;;;;;;4951813;28;20023;-59
2022/09/04 00:39:17;;;;;;;28.02;19.50;;;16.30;99.90;;;;;;4949103;28;20035;-59
2022/09/04 00:42:07;;;;;;;32.75;21.48;;;16.30;99.90;;;;;;4947998;29;20483;-60
2022/09/04 00:44:58;;;;;;;34.22;21.85;;;16.30;99.90;;;;;;4952327;29;20034;-60
2022/09/04 00:47:32;;;;;;;35.20;21.90;;;16.40;99.90;;;;;;4946341;29;20110;-60
2022/09/04 00:50:06;;;;;;;34.20;20.75;;;16.40;99.90;;;;;;4952973;28;20046;-60
2022/09/04 00:53:00;;;;;;;30.83;20.15;;;16.40;99.90;;;;;;4955809;28;20031;-60
2022/09/04 00:56:10;;;;;;;34.55;22.35;;;16.50;99.90;;;;;;4949615;28;20023;-61
2022/09/04 00:58:57;;;;;;;30.67;19.92;;;16.50;99.90;;;;;;4947284;29;20122;-61
2022/09/04 01:01:26;;;;;;;36.28;24.58;;;16.50;99.90;;;;;;4951295;28;20038;-60
2022/09/04 01:04:30;;;;;;;28.92;21.30;;;16.60;99.90;;;;;;4952881;29;20038;-60
2022/09/04 01:07:16;;;;;;;34.05;20.25;;;16.60;99.90;;;;;;4948903;28;20062;-60
2022/09/04 01:10:26;;;;;;;30.17;19.10;;;16.60;99.90;;;;;;4950817;29;20721;-61
2022/09/04 01:13:32;;;;;;;29.58;19.30;;;16.60;99.90;;;;;;4929706;29;20055;-60
2022/09/04 01:16:21;;;;;;;29.20;17.30;;;16.60;99.90;;;;;;4911114;29;20041;-60
2022/09/04 01:18:58;;;;;;;26.50;17.05;;;16.50;99.90;;;;;;4911195;29;20459;-60
2022/09/04 01:21:47;;;;;;;26.45;18.65;;;16.50;99.90;;;;;;4902743;29;20067;-60
2022/09/04 01:24:31;;;;;;;27.58;18.20;;;16.50;99.90;;;;;;4907234;29;20036;-60
2022/09/04 01:27:18;;;;;;;24.70;18.30;;;16.50;99.90;;;;;;4907311;29;20045;-60
2022/09/04 01:30:08;;;;;;;27.02;16.95;;;16.50;99.90;;;;;;4908562;29;20540;-60
2022/09/04 01:33:01;;;;;;;25.17;16.42;;;16.50;99.90;;;;;;4906481;29;20035;-59
2022/09/04 01:35:29;;;;;;;20.75;15.23;;;16.40;99.90;;;;;;4909579;29;20050;-60
2022/09/04 01:38:05;;;;;;;25.92;18.05;;;16.50;99.90;;;;;;4908206;29;20024;-60
2022/09/04 01:40:43;;;;;;;25.92;18.70;;;16.50;99.90;;;;;;4908611;29;20028;-60
2022/09/04 01:43:11;;;;;;;22.48;15.18;;;16.40;99.90;;;;;;4907220;29;20040;-61
2022/09/04 01:46:06;;;;;;;25.58;17.83;;;16.40;99.90;;;;;;4904203;29;20044;-59
2022/09/04 01:48:43;;;;;;;21.80;16.20;;;16.50;99.90;;;;;;4951032;28;20376;-60
2022/09/04 01:51:21;;;;;;;24.30;18.40;;;16.60;99.90;;;;;;4951215;28;20031;-61
2022/09/04 01:54:01;;;;;;;29.17;19.70;;;16.60;99.90;;;;;;4952189;28;20059;-59
2022/09/04 01:56:43;;;;;;;21.88;16.88;;;16.80;99.90;;;;;;4951599;29;20483;-60
2022/09/04 01:59:28;;;;;;;22.08;16.70;;;16.80;99.90;;;;;;4949082;28;20061;-60
2022/09/04 02:02:22;;;;;;;27.88;17.60;;;16.80;99.90;;;;;;4951768;28;20412;-59
2022/09/04 02:05:11;;;;;;;23.90;16.85;;;17.00;99.90;;;;;;4951083;28;20034;-60
2022/09/04 02:07:57;;;;;;;25.52;16.85;;;17.10;99.90;;;;;;4953028;28;20034;-60
2022/09/04 02:10:38;;;;;;;23.40;16.55;;;17.20;99.90;;;;;;4948779;28;20079;-60
2022/09/04 02:13:28;;;;;;;27.92;18.20;;;17.30;99.90;;;;;;4947857;29;20039;-58
2022/09/04 02:15:57;;;;;;;26.38;17.98;;;17.30;99.90;;;;;;4951300;28;20047;-59
2022/09/04 02:18:34;;;;;;;25.48;17.63;;;17.40;99.90;;;;;;4950054;29;20031;-59
2022/09/04 02:21:24;;;;;;;24.27;17.75;;;17.50;99.90;;;;;;4949602;28;20023;-59
2022/09/04 02:24:15;;;;;;;25.13;16.95;;;17.40;99.90;;;;;;4947003;29;20028;-59
2022/09/04 02:27:03;;;;;;;22.90;16.83;;;17.40;99.90;;;;;;4957087;28;20042;-59
2022/09/04 02:29:34;;;;;;;27.65;15.73;;;17.40;99.90;;;;;;4949424;28;20166;-59
2022/09/04 02:32:36;;;;;;;28.80;18.15;;;17.40;99.90;;;;;;4950818;28;20031;-59
2022/09/04 02:35:09;;;;;;;25.40;16.98;;;17.40;99.90;;;;;;4928328;28;20039;-60
2022/09/04 02:38:07;;;;;;;25.52;16.55;;;17.50;99.90;;;;;;4946724;28;20082;-59
2022/09/04 02:40:44;;;;;;;24.58;15.52;;;17.50;99.90;;;;;;4926533;29;20044;-59
2022/09/04 02:43:35;;;;;;;21.60;14.80;;;17.40;99.90;;;;;;4922082;29;20255;-59
2022/09/04 02:46:11;;;;;;;21.48;15.07;;;17.40;99.90;;;;;;4927171;29;20028;-59
2022/09/04 02:48:43;;;;;;;24.73;15.63;;;17.30;99.90;;;;;;4927047;29;20035;-59
2022/09/04 02:51:46;;;;;;;25.75;14.25;;;17.30;99.90;;;;;;4925213;29;20123;-59
2022/09/04 02:54:49;;;;;;;23.25;13.80;;;17.40;99.90;;;;;;4925707;29;20023;-59
2022/09/04 02:57:40;;;;;;;22.60;13.80;;;17.40;99.90;;;;;;4925047;29;20039;-58
2022/09/04 03:00:18;;;;;;;19.75;13.43;;;17.50;99.90;;;;;;4923695;29;20036;-60
2022/09/04 03:03:14;;;;;;;17.15;13.10;;;17.50;99.90;;;;;;4928085;29;20155;-60
2022/09/04 03:05:57;;;;;;;19.35;13.05;;;17.50;99.90;;;;;;4934390;29;20063;-60
2022/09/04 03:08:35;;;;;;;22.13;13.05;;;17.40;99.90;;;;;;4927477;29;20232;-60
2022/09/04 03:11:16;;;;;;;18.25;13.10;;;17.40;99.90;;;;;;4924986;29;20051;-60
2022/09/04 03:14:02;;;;;;;19.63;12.43;;;17.40;99.90;;;;;;4930668;29;20043;-60
2022/09/04 03:17:02;;;;;;;23.60;13.60;;;17.30;99.90;;;;;;4943706;28;20037;-60
2022/09/04 03:19:39;;;;;;;18.92;12.20;;;17.30;99.90;;;;;;4949439;28;20028;-60
2022/09/04 03:22:25;;;;;;;18.48;10.90;;;17.20;99.90;;;;;;4948461;28;20023;-60
2022/09/04 03:25:19;;;;;;;16.38;11.43;;;17.20;99.90;;;;;;4950545;28;20038;-60
2022/09/04 03:27:45;;;;;;;17.88;9.45;;;17.20;99.90;;;;;;4948201;28;20109;-59
2022/09/04 03:30:13;;;;;;;14.15;9.70;;;17.10;99.90;;;;;;4952189;28;20043;-60
2022/09/04 03:33:09;;;;;;;14.98;9.30;;;17.10;99.90;;;;;;4954712;28;20027;-60
2022/09/04 03:35:41;;;;;;;17.45;8.48;;;17.10;99.90;;;;;;4954431;28;20043;-60
2022/09/04 03:38:51;;;;;;;16.58;8.52;;;17.10;99.90;;;;;;4952894;28;20042;-60
2022/09/04 03:41:37;;;;;;;16.08;8.80;;;17.00;99.90;;;;;;4952049;28;20098;-59
2022/09/04 03:44:44;;;;;;;12.25;7.88;;;16.90;99.90;;;;;;4979839;23;20051;-60
2022/09/04 03:47:52;;;;;;;14.40;8.70;;;16.90;99.90;;;;;;4990439;28;20080;-60
2022/09/04 03:50:32;;;;;;;17.27;10.13;;;16.80;99.90;;;;;;4982187;28;20042;-60
2022/09/04 03:53:31;;;;;;;14.95;9.52;;;16.90;99.90;;;;;;4990877;28;20113;-59
2022/09/04 03:56:22;;;;;;;15.90;9.63;;;16.90;99.90;;;;;;4969246;28;20046;-59
2022/09/04 03:59:00;;;;;;;10.48;8.55;;;17.00;99.90;;;;;;4984381;28;20095;-60
2022/09/04 04:01:35;;;;;;;15.57;8.80;;;16.90;99.90;;;;;;4984985;28;20041;-60
2022/09/04 04:04:34;;;;;;;18.98;9.20;;;16.80;99.90;;;;;;4988022;28;20026;-59
2022/09/04 04:07:10;;;;;;;14.32;9.52;;;16.80;99.90;;;;;;4991013;28;20441;-59
2022/09/04 04:10:15;;;;;;;17.40;9.60;;;16.70;99.90;;;;;;4978259;28;20771;-59
2022/09/04 04:12:44;;;;;;;22.48;10.02;;;16.80;99.90;;;;;;4991172;28;20054;-60
2022/09/04 04:15:45;;;;;;;15.90;8.48;;;16.80;99.90;;;;;;4984241;28;20541;-59
2022/09/04 04:18:33;;;;;;;14.63;8.70;;;16.80;99.90;;;;;;4977499;28;20023;-60
2022/09/04 04:21:22;;;;;;;12.43;8.20;;;16.80;99.90;;;;;;4991590;28;20057;-59
2022/09/04 04:23:56;;;;;;;20.83;7.95;;;16.80;99.90;;;;;;4985301;28;20066;-60
2022/09/04 04:26:39;;;;;;;16.05;7.85;;;16.80;99.90;;;;;;4988348;28;20029;-60
2022/09/04 04:29:33;;;;;;;14.60;7.13;;;16.60;99.90;;;;;;4990165;28;20038;-60
2022/09/04 04:32:12;;;;;;;11.02;6.47;;;16.60;99.90;;;;;;4991902;28;20030;-59
2022/09/04 04:35:15;;;;;;;12.35;6.65;;;16.60;99.90;;;;;;4979558;28;20041;-59
2022/09/04 04:37:59;;;;;;;9.70;5.05;;;16.60;99.90;;;;;;4986244;28;20026;-59
2022/09/04 04:40:45;;;;;;;9.07;4.68;;;16.60;99.90;;;;;;4982488;28;20026;-59
2022/09/04 04:43:17;;;;;;;14.30;4.50;;;16.50;99.90;;;;;;4983731;28;20166;-60
2022/09/04 04:45:49;;;;;;;;;;;16.50;99.90;;;;;;4986724;28;20030;-60
2022/09/04 04:48:55;;;;;;;6.47;3.13;;;16.50;99.90;;;;;;4985613;28;19961;-60
2022/09/04 04:51:48;;;;;;;7.13;2.97;;;16.50;99.90;;;;;;4982898;28;20572;-60
2022/09/04 04:54:35;;;;;;;8.43;3.15;;;16.50;99.90;;;;;;4982419;28;20473;-61
2022/09/04 04:57:07;;;;;;;8.63;2.97;;;16.50;99.90;;;;;;4990486;28;20022;-60
2022/09/04 05:00:05;;;;;;;7.47;3.10;;;16.50;99.90;;;;;;4983383;28;20496;-60
2022/09/04 05:02:59;;;;;;;7.25;2.38;;;16.50;99.90;;;;;;4983943;28;20363;-60
2022/09/04 05:06:02;;;;;;;5.18;2.47;;;16.40;99.90;;;;;;4988303;28;20052;-59
2022/09/04 05:08:35;;;;;;;7.93;2.22;;;16.30;99.90;;;;;;4986265;28;20023;-60
2022/09/04 05:11:12;;;;;;;4.80;2.67;;;16.30;99.90;;;;;;4988118;28;20493;-60
2022/09/04 05:14:28;;;;;;;7.13;2.15;;;16.40;99.90;;;;;;4991478;28;20029;-59
2022/09/04 05:17:06;;;;;;;9.88;1.80;;;16.60;99.90;;;;;;4970535;28;20038;-59
2022/09/04 05:20:00;;;;;;;5.50;1.50;;;16.60;99.90;;;;;;4989122;28;20030;-60
2022/09/04 05:22:39;;;;;;;8.40;1.67;;;16.60;99.90;;;;;;4986002;28;20041;-59
2022/09/04 05:25:33;;;;;;;6.00;2.50;;;16.70;99.90;;;;;;4978602;28;20375;-60
2022/09/04 05:28:19;;;;;;;9.38;1.50;;;16.70;99.90;;;;;;4990829;28;20045;-59
2022/09/04 05:30:54;;;;;;;4.38;1.90;;;16.70;99.90;;;;;;4988165;28;20046;-60
2022/09/04 05:33:53;;;;;;;4.18;1.35;;;16.80;99.90;;;;;;4985690;28;20026;-60
2022/09/04 05:36:49;;;;;;;7.57;1.58;;;16.80;99.90;;;;;;4989178;28;20064;-60
2022/09/04 05:39:43;;;;;;;6.82;1.90;;;16.90;99.90;;;;;;4989590;28;20046;-59
2022/09/04 05:42:21;;;;;;;7.55;1.73;;;16.90;99.90;;;;;;4981225;28;20041;-60
2022/09/04 05:44:57;;;;;;;6.63;1.65;;;17.00;99.90;;;;;;4990533;28;20089;-60
2022/09/04 05:47:46;;;;;;;6.50;1.90;;;17.00;99.90;;;;;;4980734;28;20033;-60
2022/09/04 05:50:32;;;;;;;4.65;1.30;;;17.10;99.90;;;;;;4985693;28;20097;-60
2022/09/04 05:53:24;;;;;;;4.40;1.42;;;17.20;99.90;;;;;;4981699;28;20118;-60
2022/09/04 05:56:48;;;;;;;3.67;1.58;;;17.20;99.90;;;;;;4950422;28;20446;-60
2022/09/04 05:59:40;;;;;;;7.68;1.73;;;17.30;99.90;;;;;;4940785;29;20054;-59
2022/09/04 06:02:47;;;;;;;4.20;1.42;;;17.40;99.90;;;;;;4931658;29;20043;-62
2022/09/04 06:05:37;;;;;;;4.82;1.73;;;17.50;99.90;;;;;;4938358;29;20395;-61
2022/09/04 06:08:45;;;;;;;7.53;1.73;;;17.50;99.90;;;;;;4935467;29;20102;-61
2022/09/04 06:11:49;;;;;;;8.10;1.30;;;17.50;99.90;;;;;;4912712;29;20048;-60
2022/09/04 06:14:24;;;;;;;5.35;2.00;;;17.50;99.90;;;;;;4903234;29;20179;-60
2022/09/04 06:17:05;;;;;;;9.30;1.83;;;17.70;99.90;;;;;;4935601;29;20055;-60
2022/09/04 06:19:50;;;;;;;6.07;1.42;;;17.70;99.90;;;;;;4940967;29;20040;-60
2022/09/04 06:22:18;;;;;;;5.82;1.50;;;17.80;99.90;;;;;;4939792;29;20507;-60
2022/09/04 06:25:19;;;;;;;5.68;1.63;;;17.80;99.90;;;;;;4938438;29;20392;-60
2022/09/04 06:28:16;;;;;;;7.05;1.85;;;17.90;99.90;;;;;;4884119;29;20048;-61
2022/09/04 06:31:01;;;;;;;7.07;1.27;;;18.20;99.90;;;;;;4906812;29;20147;-60
2022/09/04 06:33:27;;;;;;;3.65;1.73;;;18.20;99.90;;;;;;4902917;29;20028;-60
2022/09/04 06:36:23;;;;;;;5.80;1.27;;;18.20;99.90;;;;;;4934794;29;20044;-60
2022/09/04 06:39:21;;;;;;;8.38;1.58;;;18.30;99.90;;;;;;4934682;29;20122;-60
2022/09/04 06:42:18;;;;;;;6.28;1.45;;;18.40;99.90;;;;;;4943879;29;20058;-61
2022/09/04 06:45:02;;;;;;;8.98;1.48;;;18.50;99.90;;;;;;4932755;29;20063;-60
2022/09/04 06:47:41;;;;;;;4.93;1.00;;;18.60;99.90;;;;;;4934476;29;20404;-60
2022/09/04 06:50:43;;;;;;;4.20;1.33;;;18.70;99.90;;;;;;4930818;29;20103;-60
2022/09/04 06:53:09;;;;;;;;;;;18.70;99.90;;;;;;4934769;29;20078;-59
2022/09/04 06:55:48;;;;;;;5.10;1.23;;;18.80;99.90;;;;;;4944966;29;19995;-59
2022/09/04 06:58:28;;;;;;;7.78;1.70;;;18.90;99.90;;;;;;4936237;29;20388;-62
2022/09/04 07:01:01;;;;;;;3.90;1.20;;;19.00;99.90;;;;;;4937354;29;20042;-60
2022/09/04 07:03:42;;;;;;;10.43;1.52;;;19.00;99.90;;;;;;4961415;28;20484;-60
2022/09/04 07:06:17;;;;;;;8.88;1.83;;;19.10;99.90;;;;;;4973955;28;20027;-60
2022/09/04 07:09:08;;;;;;;5.70;1.58;;;19.10;99.90;;;;;;4984391;28;20089;-59
2022/09/04 07:11:42;;;;;;;9.82;1.52;;;19.20;99.90;;;;;;4982541;28;20045;-60
2022/09/04 07:14:44;;;;;;;9.00;1.20;;;19.20;99.90;;;;;;4987476;28;20505;-60
2022/09/04 07:17:31;;;;;;;11.70;1.60;;;19.30;99.90;;;;;;4937034;29;20036;-60
2022/09/04 07:20:20;;;;;;;4.97;1.30;;;19.30;99.90;;;;;;4943901;29;20051;-60
2022/09/04 07:23:13;;;;;;;10.48;1.50;;;19.40;99.90;;;;;;4947089;29;20162;-61
2022/09/04 07:25:43;;;;;;;;;;;19.40;99.90;;;;;;4946738;29;20039;-60
2022/09/04 07:28:33;;;;;;;7.18;1.50;;;19.40;99.90;;;;;;4938847;29;19995;-61
2022/09/04 07:31:14;;;;;;;10.55;2.42;;;19.50;99.90;;;;;;4934739;29;20056;-62
2022/09/04 07:34:01;;;;;;;6.38;1.15;;;19.50;99.90;;;;;;4947845;29;20086;-61
2022/09/04 07:36:43;;;;;;;12.38;1.60;;;19.60;99.90;;;;;;4944794;29;20478;-61
2022/09/04 07:39:18;;;;;;;4.18;1.10;;;19.70;99.90;;;;;;4929131;29;20050;-59
2022/09/04 07:42:11;;;;;;;7.88;1.40;;;19.80;99.90;;;;;;4937129;29;20039;-61
2022/09/04 07:44:46;;;;;;;7.85;1.45;;;19.90;99.90;;;;;;4932296;29;20043;-61
2022/09/04 07:47:38;;;;;;;7.55;1.60;;;19.90;99.90;;;;;;4928333;28;20102;-60
2022/09/04 07:50:20;;;;;;;39.47;14.15;;;20.00;99.90;;;;;;4941722;28;20385;-61
2022/09/04 07:53:13;;;;;;;3.78;1.30;;;20.00;99.90;;;;;;4987573;28;20096;-61
2022/09/04 07:55:47;;;;;;;11.30;1.27;;;20.00;99.90;;;;;;4983524;28;20034;-61
2022/09/04 07:58:36;;;;;;;12.52;1.45;;;20.10;99.90;;;;;;4990406;28;20041;-62
2022/09/04 08:01:27;;;;;;;8.57;1.85;;;20.10;99.90;;;;;;4989810;28;20367;-61
2022/09/04 08:04:18;;;;;;;5.90;1.55;;;20.30;99.90;;;;;;4990552;28;20383;-61
2022/09/04 08:06:59;;;;;;;7.75;1.27;;;20.30;99.90;;;;;;4992599;28;20034;-61
2022/09/04 08:09:40;;;;;;;7.13;1.30;;;20.30;99.90;;;;;;4982602;28;20039;-61
2022/09/04 08:12:29;;;;;;;6.13;1.90;;;20.40;99.90;;;;;;4989922;28;20041;-61
2022/09/04 08:15:23;;;;;;;7.70;1.50;;;20.40;99.90;;;;;;4992614;28;20022;-61
2022/09/04 08:18:04;;;;;;;8.20;1.77;;;20.40;99.90;;;;;;4983427;28;20068;-62
2022/09/04 08:20:54;;;;;;;6.10;1.25;;;20.50;99.90;;;;;;4984894;28;20035;-61
2022/09/04 08:23:48;;;;;;;11.48;1.42;;;20.40;99.90;;;;;;4987124;28;20030;-62
2022/09/04 08:26:37;;;;;;;11.77;1.70;;;20.50;99.90;;;;;;4989773;28;20475;-61
2022/09/04 08:29:09;;;;;;;5.43;1.30;;;20.50;99.90;;;;;;4990048;28;20018;-60
2022/09/04 08:32:12;;;;;;;11.07;1.80;;;20.50;99.90;;;;;;4992299;28;20057;-61
2022/09/04 08:35:10;;;;;;;6.80;1.55;;;20.50;99.90;;;;;;4987705;28;20034;-62
2022/09/04 08:37:36;;;;;;;10.77;1.40;;;20.60;99.90;;;;;;4985485;28;20066;-60
2022/09/04 08:40:29;;;;;;;8.38;1.77;;;20.60;99.90;;;;;;4990154;28;20046;-62
2022/09/04 08:43:09;;;;;;;;;;;20.80;99.90;;;;;;4991370;28;20050;-61
2022/09/04 08:45:56;;;;;;;10.27;2.05;;;20.90;99.90;;;;;;4983971;28;19933;-59
2022/09/04 08:48:32;;;;;;;5.75;1.50;;;21.00;99.90;;;;;;4985347;28;20037;-60
2022/09/04 08:51:04;;;;;;;6.15;1.45;;;21.00;99.90;;;;;;4993587;28;20057;-60
2022/09/04 08:53:45;;;;;;;7.47;1.73;;;21.10;99.90;;;;;;4990223;28;20026;-60
2022/09/04 08:56:25;;;;;;;5.25;1.40;;;21.20;99.90;;;;;;4990881;28;20335;-61
2022/09/04 08:59:28;;;;;;;4.07;1.38;;;21.40;99.90;;;;;;4992529;28;20050;-60
2022/09/04 09:02:02;;;;;;;8.70;1.40;;;21.40;99.90;;;;;;4992205;28;20498;-61
2022/09/04 09:04:32;;;;;;;9.32;2.13;;;21.50;99.90;;;;;;4991055;28;20486;-62
2022/09/04 09:07:31;;;;;;;6.45;1.63;;;21.50;99.90;;;;;;4993184;28;20038;-62
2022/09/04 09:10:19;;;;;;;7.82;1.40;;;21.50;99.90;;;;;;4986349;28;20046;-60
2022/09/04 09:13:14;;;;;;;8.25;1.10;;;21.50;99.90;;;;;;4993591;28;20050;-61
2022/09/04 09:16:05;;;;;;;8.23;1.92;;;21.30;99.90;;;;;;4992695;28;20065;-62
2022/09/04 09:19:07;;;;;;;8.35;2.17;;;21.30;99.90;;;;;;4981868;28;20022;-62
2022/09/04 09:21:44;;;;;;;7.40;1.73;;;21.30;99.90;;;;;;4992562;28;20042;-62
2022/09/04 09:24:29;;;;;;;4.18;1.40;;;21.40;99.90;;;;;;4983311;28;20502;-60
2022/09/04 09:27:39;;;;;;;9.32;1.85;;;21.40;99.90;;;;;;4987905;28;20025;-62
2022/09/04 09:30:06;;;;;;;6.30;1.30;;;21.40;99.90;;;;;;4988610;28;20045;-61
2022/09/04 09:33:05;;;;;;;8.18;1.40;;;21.40;99.90;;;;;;4991491;28;20029;-60
2022/09/04 09:35:54;;;;;;;7.07;1.15;;;21.40;99.90;;;;;;4989902;28;20026;-61
2022/09/04 09:38:35;;;;;;;8.55;2.22;;;21.40;99.90;;;;;;4987599;28;20057;-61
2022/09/04 09:41:16;;;;;;;7.78;1.73;;;21.50;99.90;;;;;;4990072;28;20033;-64
2022/09/04 09:44:00;;;;;;;6.05;1.63;;;21.50;99.90;;;;;;4988942;28;20074;-62
2022/09/04 09:46:49;;;;;;;3.53;1.48;;;21.40;99.90;;;;;;4986516;28;20037;-62
2022/09/04 09:49:20;;;;;;;8.40;1.75;;;21.60;99.90;;;;;;4988965;28;20034;-62
2022/09/04 09:52:04;;;;;;;9.13;1.83;;;21.80;99.90;;;;;;4990424;28;20493;-61
2022/09/04 09:54:39;;;;;;;6.55;1.63;;;22.00;99.90;;;;;;4981373;28;20461;-61
2022/09/04 09:57:19;;;;;;;7.75;1.95;;;22.10;99.90;;;;;;4988634;28;20073;-62
2022/09/04 09:59:50;;;;;;;4.82;1.48;;;22.00;99.90;;;;;;4990737;28;20037;-61
2022/09/04 10:02:25;;;;;;;6.45;1.17;;;22.10;99.90;;;;;;4988786;28;20030;-61
2022/09/04 10:05:06;;;;;;;8.85;1.63;;;22.20;99.90;;;;;;4990737;28;20137;-61
2022/09/04 10:07:35;;;;;;;10.25;1.75;;;22.30;99.90;;;;;;4990370;28;20030;-64
2022/09/04 10:10:17;;;;;;;7.00;1.42;;;22.30;99.90;;;;;;4990108;28;20145;-61
2022/09/04 10:13:14;;;;;;;5.57;1.23;;;22.40;99.90;;;;;;4976141;28;20018;-61
2022/09/04 10:16:00;;;;;;;4.70;1.20;;;22.60;99.90;;;;;;4930204;29;20039;-62
2022/09/04 10:18:44;;;;;;;6.65;1.63;;;22.50;99.90;;;;;;4900229;29;20070;-61
2022/09/04 10:21:19;;;;;;;5.93;1.50;;;22.60;99.90;;;;;;4928101;29;20040;-60
2022/09/04 10:23:54;;;;;;;7.03;1.08;;;22.50;99.90;;;;;;4930193;29;20356;-61
2022/09/04 10:26:29;;;;;;;13.40;1.90;;;22.50;99.90;;;;;;4928259;29;20090;-61
2022/09/04 10:29:15;;;;;;;7.82;1.75;;;22.50;99.90;;;;;;4930094;29;20042;-61
2022/09/04 10:31:59;;;;;;;8.20;1.60;;;22.80;99.90;;;;;;4930048;29;20043;-60
2022/09/04 10:34:57;;;;;;;5.85;1.10;;;22.80;99.90;;;;;;4922357;29;20496;-61
2022/09/04 10:37:31;;;;;;;8.80;2.03;;;22.70;99.90;;;;;;4920032;29;20498;-61
2022/09/04 10:40:39;;;;;;;7.38;1.27;;;22.60;99.90;;;;;;4926832;29;20091;-61
2022/09/04 10:43:31;;;;;;;7.30;1.42;;;22.50;99.90;;;;;;4922944;29;20444;-61
2022/09/04 10:46:20;;;;;;;8.48;1.70;;;22.40;99.90;;;;;;4914119;29;20499;-61
2022/09/04 10:49:16;;;;;;;9.95;2.08;;;22.50;99.90;;;;;;4913545;29;20267;-61
2022/09/04 10:52:12;;;;;;;12.48;1.50;;;22.70;99.90;;;;;;4949471;28;20473;-61
2022/09/04 10:55:07;;;;;;;11.23;1.90;;;22.60;99.90;;;;;;4989997;28;20025;-61
2022/09/04 10:57:58;;;;;;;11.38;1.90;;;22.80;99.90;;;;;;4976330;28;20034;-61
2022/09/04 11:01:07;;;;;;;4.45;1.20;;;22.90;99.90;;;;;;4987848;28;20025;-61
2022/09/04 11:04:03;;;;;;;6.53;1.88;;;23.00;99.90;;;;;;4984980;28;20057;-61
2022/09/04 11:07:04;;;;;;;8.13;1.80;;;23.10;99.90;;;;;;4988497;28;20053;-60
2022/09/04 11:09:35;;;;;;;6.95;2.63;;;23.50;99.90;;;;;;4982168;28;20077;-62
2022/09/04 11:12:30;;;;;;;9.13;1.52;;;23.70;99.90;;;;;;4989614;28;20044;-61
2022/09/04 11:15:14;;;;;;;8.90;1.52;;;23.80;99.90;;;;;;4981151;28;20429;-60
2022/09/04 11:17:47;;;;;;;5.45;1.77;;;23.50;99.90;;;;;;4988704;28;20031;-60
2022/09/04 11:20:38;;;;;;;5.00;1.73;;;23.10;99.90;;;;;;4975359;28;20125;-61
2022/09/04 11:23:20;;;;;;;5.57;1.75;;;23.10;99.90;;;;;;4986972;28;20018;-60
2022/09/04 11:26:04;;;;;;;8.07;1.88;;;23.20;99.90;;;;;;4993491;28;20137;-62
2022/09/04 11:28:39;;;;;;;3.78;1.30;;;23.20;99.90;;;;;;4980516;28;20105;-61
2022/09/04 11:31:28;;;;;;;11.95;2.33;;;23.00;99.90;;;;;;4991488;28;20046;-60
2022/09/04 11:34:32;;;;;;;8.57;2.00;;;22.70;99.90;;;;;;4992442;28;20030;-60
2022/09/04 11:37:16;;;;;;;11.05;1.63;;;22.60;99.90;;;;;;4978444;28;20070;-61
2022/09/04 11:40:09;;;;;;;8.63;1.70;;;22.70;99.90;;;;;;4988434;28;20478;-62
2022/09/04 11:42:49;;;;;;;7.53;1.58;;;22.70;99.90;;;;;;4987571;28;20026;-62
2022/09/04 11:45:47;;;;;;;8.85;1.40;;;22.90;99.90;;;;;;4990882;28;20074;-61
2022/09/04 11:48:25;;;;;;;10.45;1.30;;;23.10;99.90;;;;;;4986284;28;20104;-61
2022/09/04 11:51:23;;;;;;;11.60;2.17;;;23.20;99.90;;;;;;4992607;28;20509;-61
2022/09/04 11:54:13;;;;;;;5.47;1.77;;;23.60;99.90;;;;;;4931900;29;20044;-61
2022/09/04 11:57:19;;;;;;;11.32;2.78;;;24.10;99.90;;;;;;4927124;29;20092;-61
2022/09/04 11:59:47;;;;;;;8.45;1.35;;;24.30;99.90;;;;;;4912711;29;20040;-61
2022/09/04 12:02:18;;;;;;;7.80;1.48;;;24.80;99.90;;;;;;4930950;29;20401;-60
2022/09/04 12:05:09;;;;;;;6.80;1.40;;;24.90;99.90;;;;;;4932372;29;20040;-60
2022/09/04 12:07:59;;;;;;;4.07;1.88;;;24.50;99.90;;;;;;4932632;29;20090;-61
2022/09/04 12:10:33;;;;;;;5.50;1.63;;;25.00;99.90;;;;;;4926463;29;20055;-61
2022/09/04 12:13:05;;;;;;;11.38;1.48;;;24.90;99.90;;;;;;4921880;29;20130;-61
2022/09/04 12:15:53;;;;;;;6.28;1.45;;;24.90;99.90;;;;;;4932125;29;20050;-61
2022/09/04 12:18:25;;;;;;;6.78;1.50;;;24.90;99.90;;;;;;4922053;29;20054;-61
2022/09/04 12:20:54;;;;;;;;;;;25.10;99.90;;;;;;4932408;29;20043;-61
2022/09/04 12:23:30;;;;;;;9.27;1.80;;;25.80;99.90;;;;;;4926065;29;19922;-61
2022/09/04 12:26:20;;;;;;;6.82;1.25;;;25.70;99.90;;;;;;4931969;29;20070;-63
2022/09/04 12:29:10;;;;;;;7.82;1.42;;;26.30;99.90;;;;;;4941427;28;20113;-61
2022/09/04 12:31:51;;;;;;;6.60;1.55;;;26.80;99.90;;;;;;4989882;28;20402;-60
2022/09/04 12:34:58;;;;;;;8.10;1.50;;;27.00;99.90;;;;;;4981652;28;20027;-60
2022/09/04 12:37:45;;;;;;;9.00;1.48;;;27.10;99.90;;;;;;4981731;28;20038;-62
2022/09/04 12:40:40;;;;;;;7.28;1.92;;;27.30;99.90;;;;;;4990125;28;20045;-62
2022/09/04 12:43:40;;;;;;;5.00;1.30;;;28.10;99.90;;;;;;4989469;28;20129;-62
2022/09/04 12:46:45;;;;;;;5.50;1.52;;;28.90;99.90;;;;;;4930205;29;20036;-62
2022/09/04 12:49:36;;;;;;;7.57;1.50;;;28.30;99.90;;;;;;4930218;29;20039;-62
2022/09/04 12:52:24;;;;;;;8.68;1.20;;;28.50;99.90;;;;;;4931633;29;20453;-62
2022/09/04 12:54:57;;;;;;;7.07;1.83;;;27.50;99.90;;;;;;4931657;29;20127;-63
2022/09/04 12:57:45;;;;;;;6.43;1.30;;;27.60;99.90;;;;;;4928067;29;20122;-61
2022/09/04 13:00:16;;;;;;;6.22;1.48;;;26.90;99.90;;;;;;4929999;29;20039;-62
2022/09/04 13:02:53;;;;;;;6.75;1.40;;;26.80;99.90;;;;;;4931697;29;20035;-61
2022/09/04 13:05:30;;;;;;;8.90;1.50;;;26.70;99.90;;;;;;4925762;29;20036;-61
2022/09/04 13:08:17;;;;;;;7.72;1.60;;;27.10;99.90;;;;;;4931487;29;20590;-62
2022/09/04 13:10:51;;;;;;;7.45;1.40;;;27.20;99.90;;;;;;4930031;29;20052;-61
2022/09/04 13:13:54;;;;;;;5.15;1.27;;;27.20;99.90;;;;;;4925794;29;20527;-62
2022/09/04 13:16:53;;;;;;;5.10;1.10;;;27.30;99.90;;;;;;4923265;29;20300;-61
2022/09/04 13:19:33;;;;;;;6.68;1.27;;;28.10;99.90;;;;;;4928232;29;20032;-61
2022/09/04 13:22:08;;;;;;;7.63;1.60;;;28.50;99.90;;;;;;4940595;28;20121;-61
2022/09/04 13:25:07;;;;;;;10.70;1.48;;;27.80;99.90;;;;;;4991365;28;20093;-61
2022/09/04 13:27:47;;;;;;;5.53;1.60;;;27.00;99.90;;;;;;4983914;28;20034;-64
2022/09/04 13:30:20;;;;;;;5.70;1.92;;;26.30;99.90;;;;;;4979605;28;20041;-61
2022/09/04 13:32:52;;;;;;;6.97;1.67;;;25.90;99.90;;;;;;4990928;28;20034;-61
2022/09/04 13:35:20;;;;;;;9.63;2.42;;;25.50;99.90;;;;;;4980163;28;20470;-61
2022/09/04 13:38:05;;;;;;;10.32;1.60;;;25.70;99.90;;;;;;4991345;28;20029;-61
2022/09/04 13:40:56;;;;;;;5.38;1.17;;;26.20;99.90;;;;;;4983072;28;20022;-61
2022/09/04 13:43:44;;;;;;;6.88;1.67;;;27.00;99.90;;;;;;4985858;28;20053;-62
2022/09/04 13:46:21;;;;;;;4.32;1.58;;;27.40;99.90;;;;;;4979887;28;20034;-61
2022/09/04 13:48:54;;;;;;;8.55;2.03;;;28.40;99.90;;;;;;4989824;28;20576;-61
2022/09/04 13:51:31;;;;;;;5.82;1.90;;;29.20;99.90;;;;;;4981749;28;20069;-62
2022/09/04 13:54:17;;;;;;;6.30;1.35;;;29.30;99.90;;;;;;4990536;28;20622;-62
2022/09/04 13:56:57;;;;;;;4.28;1.48;;;29.60;99.90;;;;;;4989866;28;20031;-63
2022/09/04 13:59:23;;;;;;;6.30;1.40;;;30.10;98.80;;;;;;4980343;28;20022;-62
2022/09/04 14:01:57;;;;;;;6.57;1.40;;;30.40;97.80;;;;;;4990350;28;20065;-63
2022/09/04 14:04:43;;;;;;;5.03;1.70;;;31.00;96.20;;;;;;4982639;28;20022;-62
2022/09/04 14:07:25;;;;;;;4.47;1.52;;;30.90;96.10;;;;;;4983966;28;20114;-61
2022/09/04 14:09:55;;;;;;;4.82;1.38;;;30.20;94.30;;;;;;4989510;28;20037;-60
2022/09/04 14:12:46;;;;;;;4.03;1.13;;;30.30;96.30;;;;;;4985481;28;20546;-61
2022/09/04 14:15:47;;;;;;;;;;;30.40;94.80;;;;;;4988797;28;20033;-61